Terminal Aerodrome Forecast
Issued by NWS Louisville, KY

Home | Current Version | Previous Version | Text Only | Print | Product List | Glossary On
Versions: 1 2 3 4 5 6 7 8 9 10 11 12 13 14
000
FTUS43 KLMK 260524
TAFSDF
TAF
KSDF 260524Z 2606/2712 15007KT P6SM SCT250
     FM261500 19014G22KT P6SM SCT250
     FM270300 16015KT P6SM BKN250 WS016/17045KT
     FM270800 17016G23KT P6SM VCSH BKN050=

USA.gov is the U.S. government's official web portal to all federal, state and local government web resources and services.